Terminal Aerodrome Forecast
Issued by NWS

Home | Current Version | Previous Version | Text Only | Print | Product List | Glossary On
Versions: 1 2 3 4 5 6 7 8 9 10 11 12
097
FTUS46 KPDT 211720
TAFPSC
TAF
KPSC 211720Z 2118/2218 VRB04KT P6SM FEW200
     FM212200 22008KT P6SM SCT200
     FM220200 VRB04KT P6SM FEW130 SCT150=

USA.gov is the U.S. government's official web portal to all federal, state and local government web resources and services.